Time;durP1;ratioP1;P1;durP2;ratioP2;P2;SDS_P1;SDS_P2;PMS_P1;PMS_P2;Temp;Humidity;BMP_temperature;BMP_pressure;BME280_temperature;BME280_humidity;BME280_pressure;Samples;Min_cycle;Max_cycle;Signal;HPM_P1;HPM_P2
2024/02/02 00:00:34;;;;;;;27.38;3.92;;;6.10;99.90;;;;;;4968355;28;20044;-69
2024/02/02 00:03:00;;;;;;;30.45;5.05;;;6.10;99.90;;;;;;4983203;28;20508;-69
2024/02/02 00:05:26;;;;;;;29.35;3.75;;;6.20;99.90;;;;;;4983124;28;20116;-69
2024/02/02 00:07:51;;;;;;;25.83;4.82;;;6.20;99.90;;;;;;4981137;28;20085;-69
2024/02/02 00:10:17;;;;;;;24.77;4.38;;;6.20;99.90;;;;;;4983435;28;20042;-69
2024/02/02 00:12:42;;;;;;;21.08;3.42;;;6.20;99.90;;;;;;4989038;28;20046;-69
2024/02/02 00:15:09;;;;;;;36.60;4.13;;;6.20;99.90;;;;;;4979342;28;20472;-69
2024/02/02 00:17:37;;;;;;;31.48;4.35;;;6.20;99.90;;;;;;4990157;28;20030;-69
2024/02/02 00:20:04;;;;;;;22.77;3.28;;;6.20;99.90;;;;;;4984913;28;20087;-69
2024/02/02 00:22:29;;;;;;;29.15;3.80;;;6.30;99.90;;;;;;4986902;28;20041;-69
2024/02/02 00:24:55;;;;;;;18.67;3.83;;;6.30;99.90;;;;;;4984552;28;20034;-69
2024/02/02 00:27:23;;;;;;;34.00;4.35;;;6.30;99.90;;;;;;4984476;28;20059;-69
2024/02/02 00:29:48;;;;;;;;;;;6.40;99.90;;;;;;4985058;28;20462;-69
2024/02/02 00:32:15;;;;;;;32.78;4.53;;;6.40;99.90;;;;;;4984717;28;19921;-69
2024/02/02 00:34:41;;;;;;;28.77;4.32;;;6.30;99.90;;;;;;4981140;28;20082;-69
2024/02/02 00:37:10;;;;;;;25.02;3.70;;;6.30;99.90;;;;;;4983325;28;20065;-69
2024/02/02 00:39:38;;;;;;;22.10;3.38;;;6.30;99.90;;;;;;4978470;28;20477;-69
2024/02/02 00:42:04;;;;;;;20.10;4.13;;;6.30;99.90;;;;;;4985339;28;20984;-69
2024/02/02 00:44:34;;;;;;;32.17;4.35;;;6.30;99.90;;;;;;4985535;28;20038;-69
2024/02/02 00:47:00;;;;;;;24.40;3.55;;;6.30;99.90;;;;;;4987935;28;20181;-69
2024/02/02 00:49:25;;;;;;;34.08;3.83;;;6.30;99.90;;;;;;4984399;28;22938;-69
2024/02/02 00:51:51;;;;;;;35.88;3.55;;;6.30;99.90;;;;;;4988305;28;20018;-69
2024/02/02 00:54:19;;;;;;;17.00;3.78;;;6.30;99.90;;;;;;4986275;28;20572;-69
2024/02/02 00:56:45;;;;;;;23.38;3.70;;;6.40;99.90;;;;;;4987757;28;20188;-69
2024/02/02 00:59:10;;;;;;;25.98;3.83;;;6.40;99.90;;;;;;4987202;28;20042;-69
2024/02/02 01:01:36;;;;;;;31.48;4.72;;;6.40;99.90;;;;;;4981096;28;20469;-69
2024/02/02 01:04:04;;;;;;;26.63;4.40;;;6.40;99.90;;;;;;4986133;28;20062;-69
2024/02/02 01:06:30;;;;;;;24.13;4.68;;;6.40;99.90;;;;;;4986235;28;20030;-69
2024/02/02 01:08:55;;;;;;;24.58;3.92;;;6.40;99.90;;;;;;4988797;28;20033;-69
2024/02/02 01:11:22;;;;;;;27.83;4.22;;;6.40;99.90;;;;;;4987707;28;20026;-69
2024/02/02 01:13:50;;;;;;;32.55;4.78;;;6.40;99.90;;;;;;4966884;28;21576;-69
2024/02/02 01:16:16;;;;;;;28.25;4.07;;;6.40;99.90;;;;;;4982297;28;20507;-69
2024/02/02 01:18:42;;;;;;;24.98;4.68;;;6.40;99.90;;;;;;4985273;28;20062;-69
2024/02/02 01:21:08;;;;;;;26.98;4.60;;;6.50;99.90;;;;;;4986751;28;20038;-69
2024/02/02 01:23:33;;;;;;;29.30;5.50;;;6.50;99.90;;;;;;4988980;28;20030;-69
2024/02/02 01:26:01;;;;;;;21.65;4.35;;;6.40;99.90;;;;;;4985397;28;20188;-69
2024/02/02 01:28:27;;;;;;;;;;;6.40;99.90;;;;;;4985831;28;20038;-69
2024/02/02 01:30:52;;;;;;;25.45;4.45;;;6.40;99.90;;;;;;4987492;28;19910;-69
2024/02/02 01:33:20;;;;;;;26.20;4.57;;;6.40;99.90;;;;;;4985044;28;20109;-69
2024/02/02 01:35:46;;;;;;;28.13;4.60;;;6.40;99.90;;;;;;4986428;28;20042;-69
2024/02/02 01:38:12;;;;;;;27.48;5.18;;;6.40;99.90;;;;;;4986816;28;20439;-69
2024/02/02 01:40:37;;;;;;;23.52;5.07;;;6.40;99.90;;;;;;4985059;28;20067;-69
2024/02/02 01:43:03;;;;;;;26.63;5.63;;;6.40;99.90;;;;;;4987071;28;20062;-69
2024/02/02 01:45:30;;;;;;;32.75;5.10;;;6.40;99.90;;;;;;4985105;28;20857;-69
2024/02/02 01:47:55;;;;;;;22.58;5.28;;;6.50;99.90;;;;;;4987020;28;20038;-69
2024/02/02 01:50:21;;;;;;;20.40;5.53;;;6.40;99.90;;;;;;4986644;28;20441;-69
2024/02/02 01:52:49;;;;;;;26.95;5.10;;;6.40;99.90;;;;;;4987168;28;20034;-69
2024/02/02 01:55:15;;;;;;;28.33;5.50;;;6.50;99.90;;;;;;4985980;28;20042;-69
2024/02/02 01:57:40;;;;;;;32.15;5.57;;;6.50;99.90;;;;;;4986399;28;20093;-69
2024/02/02 02:00:07;;;;;;;23.25;5.45;;;6.50;99.90;;;;;;4983134;28;20121;-69
2024/02/02 02:02:33;;;;;;;22.38;5.47;;;6.50;99.90;;;;;;4989645;28;20042;-69
2024/02/02 02:04:58;;;;;;;21.90;5.65;;;6.50;99.90;;;;;;4987317;28;20046;-69
2024/02/02 02:07:24;;;;;;;26.95;6.25;;;6.50;99.90;;;;;;4985175;28;20046;-69
2024/02/02 02:09:50;;;;;;;39.33;7.88;;;6.50;99.90;;;;;;4981545;28;20501;-69
2024/02/02 02:12:15;;;;;;;43.42;6.30;;;6.40;99.90;;;;;;4985606;28;20041;-69
2024/02/02 02:14:42;;;;;;;25.65;6.00;;;6.50;99.90;;;;;;4985407;28;20613;-69
2024/02/02 02:17:07;;;;;;;29.92;6.50;;;6.50;99.90;;;;;;4967779;28;20481;-69
2024/02/02 02:19:35;;;;;;;29.58;5.90;;;6.50;99.90;;;;;;4985394;28;20026;-69
2024/02/02 02:22:02;;;;;;;;;;;6.50;99.90;;;;;;4985317;28;20022;-69
2024/02/02 02:24:30;;;;;;;21.55;5.07;;;6.50;99.90;;;;;;4983831;28;20045;-69
2024/02/02 02:26:56;;;;;;;20.33;4.88;;;6.50;99.90;;;;;;4985912;28;20057;-69
2024/02/02 02:29:21;;;;;;;21.55;5.38;;;6.40;99.90;;;;;;4967638;28;20650;-69
2024/02/02 02:31:57;;;;;;;27.85;4.90;;;6.40;99.90;;;;;;4985816;28;20054;-69
2024/02/02 02:34:26;;;;;;;27.77;5.53;;;6.50;99.90;;;;;;4984331;28;20040;-69
2024/02/02 02:36:55;;;;;;;21.02;4.80;;;6.50;99.90;;;;;;4984801;28;20041;-69
2024/02/02 02:39:21;;;;;;;18.52;4.57;;;6.50;99.90;;;;;;4984300;28;20077;-69
2024/02/02 02:41:47;;;;;;;35.58;5.47;;;6.40;99.90;;;;;;4985902;28;20031;-69
2024/02/02 02:44:14;;;;;;;28.80;5.05;;;6.50;99.90;;;;;;4982406;28;20080;-69
2024/02/02 02:46:40;;;;;;;22.90;4.93;;;6.50;99.90;;;;;;4985579;28;20433;-69
2024/02/02 02:49:06;;;;;;;23.75;4.85;;;6.50;99.90;;;;;;4984855;28;20050;-69
2024/02/02 02:51:34;;;;;;;21.95;4.78;;;6.50;99.90;;;;;;4985054;28;20030;-69
2024/02/02 02:54:00;;;;;;;;;;;6.50;99.90;;;;;;4982891;28;20035;-69
2024/02/02 02:56:26;;;;;;;18.95;4.70;;;6.50;99.90;;;;;;4985710;28;19999;-69
2024/02/02 02:58:51;;;;;;;20.25;3.83;;;6.50;99.90;;;;;;4983732;28;20591;-69
2024/02/02 03:01:17;;;;;;;19.73;3.60;;;6.50;99.90;;;;;;4977927;28;20222;-69
2024/02/02 03:03:45;;;;;;;31.67;4.90;;;6.50;99.90;;;;;;4984693;28;20030;-69
2024/02/02 03:06:11;;;;;;;;;;;6.50;99.90;;;;;;4982341;28;20041;-69
2024/02/02 03:08:39;;;;;;;27.85;4.45;;;6.60;99.90;;;;;;4986423;28;19913;-69
2024/02/02 03:11:05;;;;;;;;;;;6.60;99.90;;;;;;4988691;23;20050;-69
2024/02/02 03:13:30;;;;;;;23.98;4.85;;;6.60;99.90;;;;;;5013353;28;20432;-69
2024/02/02 03:15:56;;;;;;;23.52;4.63;;;6.60;99.90;;;;;;5021283;28;20150;-69
2024/02/02 03:18:24;;;;;;;18.60;4.18;;;6.60;99.90;;;;;;5024889;28;20612;-69
2024/02/02 03:20:49;;;;;;;22.25;4.15;;;6.60;99.90;;;;;;5006426;28;20025;-69
2024/02/02 03:23:15;;;;;;;27.15;3.63;;;6.60;99.90;;;;;;5020054;28;20165;-69
2024/02/02 03:25:43;;;;;;;23.58;4.35;;;6.60;99.90;;;;;;5023184;28;20428;-69
2024/02/02 03:28:08;;;;;;;26.13;4.63;;;6.60;99.90;;;;;;5021904;28;20489;-69
2024/02/02 03:30:34;;;;;;;19.50;3.63;;;6.60;99.90;;;;;;5024200;28;20037;-69
2024/02/02 03:32:59;;;;;;;23.73;3.97;;;6.60;99.90;;;;;;5022148;28;20083;-69
2024/02/02 03:35:25;;;;;;;20.38;3.67;;;6.60;99.90;;;;;;5024451;28;20049;-69
2024/02/02 03:37:51;;;;;;;21.95;4.55;;;6.60;99.90;;;;;;5005684;28;20034;-69
2024/02/02 03:40:16;;;;;;;25.08;4.82;;;6.60;99.90;;;;;;5020551;28;21304;-71
2024/02/02 03:42:44;;;;;;;29.35;4.72;;;6.70;99.90;;;;;;5023380;28;20563;-66
2024/02/02 03:45:13;;;;;;;;;;;6.70;99.90;;;;;;5001657;28;20086;-67
2024/02/02 03:47:41;;;;;;;22.17;3.88;;;6.60;99.90;;;;;;5020674;28;19974;-67
2024/02/02 03:50:09;;;;;;;26.95;3.58;;;6.70;99.90;;;;;;5021120;28;20037;-67
2024/02/02 03:52:35;;;;;;;27.00;4.70;;;6.70;99.90;;;;;;5021974;28;20048;-67
2024/02/02 03:55:05;;;;;;;23.95;4.50;;;6.70;99.90;;;;;;5017710;28;20033;-66
2024/02/02 03:57:31;;;;;;;22.63;4.18;;;6.70;99.90;;;;;;5002824;28;20067;-67
2024/02/02 03:59:56;;;;;;;17.48;4.00;;;6.70;99.90;;;;;;5021766;28;20037;-67
2024/02/02 04:02:24;;;;;;;17.92;3.45;;;6.70;99.90;;;;;;5021627;28;20424;-67
2024/02/02 04:04:50;;;;;;;;;;;6.70;99.90;;;;;;5024484;28;20033;-67
2024/02/02 04:07:15;;;;;;;18.35;4.03;;;6.70;99.90;;;;;;5022755;28;19917;-67
2024/02/02 04:09:43;;;;;;;14.27;3.97;;;6.70;99.90;;;;;;5020173;28;20386;-67
2024/02/02 04:12:09;;;;;;;29.10;4.70;;;6.70;99.90;;;;;;5023605;28;20042;-67
2024/02/02 04:14:37;;;;;;;17.27;3.75;;;6.70;99.90;;;;;;5021964;28;20065;-67
2024/02/02 04:17:02;;;;;;;;;;;6.80;99.90;;;;;;5023500;28;20033;-67
2024/02/02 04:19:31;;;;;;;20.85;3.95;;;6.80;99.90;;;;;;5027090;28;20613;-67
2024/02/02 04:21:56;;;;;;;;;;;6.90;99.90;;;;;;5027715;28;20033;-67
2024/02/02 04:24:24;;;;;;;21.55;4.03;;;6.80;99.90;;;;;;5023189;28;20364;-67
2024/02/02 04:26:50;;;;;;;;;;;6.80;99.90;;;;;;5003662;28;20092;-67
2024/02/02 04:29:15;;;;;;;22.83;5.03;;;6.80;99.90;;;;;;5025050;28;20012;-67
2024/02/02 04:31:43;;;;;;;22.52;4.40;;;6.80;99.90;;;;;;5026538;28;20527;-66
2024/02/02 04:34:09;;;;;;;;;;;6.80;99.90;;;;;;5027351;28;20037;-67
2024/02/02 04:36:37;;;;;;;23.27;5.13;;;6.80;99.90;;;;;;5027782;28;19921;-67
2024/02/02 04:39:02;;;;;;;20.10;4.63;;;6.80;99.90;;;;;;5024869;28;20041;-67
2024/02/02 04:41:28;;;;;;;17.85;5.00;;;6.80;99.90;;;;;;5022450;28;20049;-67
2024/02/02 04:43:53;;;;;;;20.77;3.95;;;6.80;99.90;;;;;;5024775;28;20123;-67
2024/02/02 04:46:19;;;;;;;19.85;5.38;;;6.80;99.90;;;;;;5024562;28;20087;-67
2024/02/02 04:48:45;;;;;;;23.42;4.82;;;6.80;99.90;;;;;;5023771;28;20190;-67
2024/02/02 04:51:10;;;;;;;23.48;4.57;;;6.80;99.90;;;;;;5027207;28;20103;-67
2024/02/02 04:53:38;;;;;;;27.58;5.65;;;6.80;99.90;;;;;;5022947;28;20631;-67
2024/02/02 04:56:04;;;;;;;33.22;5.15;;;6.80;99.90;;;;;;5023618;28;20053;-67
2024/02/02 04:58:30;;;;;;;29.20;5.05;;;6.80;99.90;;;;;;5026974;28;20034;-67
2024/02/02 05:00:58;;;;;;;27.25;6.18;;;6.80;99.90;;;;;;5026134;28;20029;-67
2024/02/02 05:03:23;;;;;;;15.02;4.70;;;6.90;99.90;;;;;;5025860;28;20125;-67
2024/02/02 05:05:49;;;;;;;21.95;5.10;;;6.90;99.90;;;;;;5025531;28;20163;-67
2024/02/02 05:08:14;;;;;;;18.50;4.90;;;6.90;99.90;;;;;;5025471;28;20101;-67
2024/02/02 05:10:45;;;;;;;22.63;5.65;;;6.80;99.90;;;;;;5023904;28;20044;-67
2024/02/02 05:13:10;;;;;;;25.85;5.63;;;6.90;99.90;;;;;;5025938;28;20635;-67
2024/02/02 05:15:36;;;;;;;27.92;5.57;;;6.90;99.90;;;;;;5025584;28;20111;-67
2024/02/02 05:18:02;;;;;;;24.20;5.38;;;6.90;99.90;;;;;;5027709;28;20026;-67
2024/02/02 05:20:32;;;;;;;21.67;5.88;;;6.80;99.90;;;;;;5006158;28;20049;-67
2024/02/02 05:23:02;;;;;;;29.23;7.43;;;6.80;99.90;;;;;;5024208;28;20029;-67
2024/02/02 05:25:28;;;;;;;20.88;5.82;;;6.90;99.90;;;;;;5024374;28;20044;-67
2024/02/02 05:27:56;;;;;;;20.23;5.38;;;6.90;99.90;;;;;;5025421;28;20029;-67
2024/02/02 05:30:21;;;;;;;;;;;6.90;99.90;;;;;;5023846;28;20033;-67
2024/02/02 05:32:47;;;;;;;25.92;5.60;;;6.90;99.90;;;;;;5026538;28;19920;-67
2024/02/02 05:35:14;;;;;;;22.73;6.38;;;6.90;99.90;;;;;;5022815;28;20107;-67
2024/02/02 05:37:40;;;;;;;20.35;5.72;;;6.90;99.90;;;;;;5024089;28;20656;-67
2024/02/02 05:40:09;;;;;;;23.45;5.80;;;6.90;99.90;;;;;;5022550;28;20045;-67
2024/02/02 05:42:37;;;;;;;27.02;6.43;;;6.90;99.90;;;;;;5019932;28;20035;-67
2024/02/02 05:45:03;;;;;;;;;;;7.00;99.90;;;;;;5020325;28;20457;-67
2024/02/02 05:47:31;;;;;;;19.65;5.40;;;6.90;99.90;;;;;;5023443;28;19960;-67
2024/02/02 05:50:01;;;;;;;25.67;6.10;;;6.90;99.90;;;;;;5025087;28;20561;-67
2024/02/02 05:52:26;;;;;;;19.15;5.60;;;6.90;99.90;;;;;;5023308;28;20053;-67
2024/02/02 05:54:54;;;;;;;19.50;5.82;;;6.90;99.90;;;;;;5023939;28;20508;-67
2024/02/02 05:57:22;;;;;;;19.52;5.22;;;7.00;99.90;;;;;;5006415;28;20041;-66
2024/02/02 05:59:51;;;;;;;30.02;6.03;;;7.00;99.90;;;;;;5024950;28;20045;-67
2024/02/02 06:02:21;;;;;;;21.90;5.55;;;6.90;99.90;;;;;;5023589;28;20044;-67
2024/02/02 06:04:51;;;;;;;22.48;5.72;;;6.90;99.90;;;;;;5024189;28;20046;-67
2024/02/02 06:07:16;;;;;;;21.90;5.72;;;6.90;99.90;;;;;;5024113;28;20056;-67
2024/02/02 06:09:44;;;;;;;18.27;5.88;;;7.00;99.90;;;;;;5025753;28;20072;-67
2024/02/02 06:12:12;;;;;;;33.20;6.68;;;7.00;99.90;;;;;;5024114;28;20044;-67
2024/02/02 06:14:40;;;;;;;;;;;7.00;99.90;;;;;;5020394;28;20456;-67
2024/02/02 06:17:10;;;;;;;31.15;6.45;;;7.00;99.90;;;;;;5020841;28;20200;-67
2024/02/02 06:19:35;;;;;;;21.45;6.10;;;7.00;99.90;;;;;;5023772;28;20540;-67
2024/02/02 06:22:03;;;;;;;21.88;5.18;;;7.00;99.90;;;;;;5021510;28;20045;-67
2024/02/02 06:24:29;;;;;;;23.55;5.55;;;7.00;99.90;;;;;;5019755;28;20029;-66
2024/02/02 06:26:57;;;;;;;93.55;20.92;;;7.00;99.90;;;;;;5023846;28;20033;-67
2024/02/02 06:29:24;;;;;;;20.83;5.63;;;6.90;99.90;;;;;;5020308;28;20026;-66
2024/02/02 06:31:50;;;;;;;29.15;5.75;;;6.90;99.90;;;;;;5019382;28;20057;-66
2024/02/02 06:34:18;;;;;;;16.67;5.57;;;7.00;99.90;;;;;;5023732;28;20072;-66
2024/02/02 06:36:46;;;;;;;;;;;6.90;99.90;;;;;;5024981;28;20038;-67
2024/02/02 06:39:14;;;;;;;20.08;5.85;;;6.90;99.90;;;;;;5022784;28;19913;-66
2024/02/02 06:41:40;;;;;;;;;;;6.90;99.90;;;;;;5023821;28;20041;-67
2024/02/02 06:44:10;;;;;;;27.98;6.75;;;6.90;99.90;;;;;;5022047;28;19918;-66
2024/02/02 06:46:35;;;;;;;23.42;7.47;;;6.90;99.90;;;;;;5020742;28;20196;-66
2024/02/02 06:49:01;;;;;;;27.88;7.10;;;6.90;99.90;;;;;;5023821;28;20623;-66
2024/02/02 06:51:31;;;;;;;26.75;6.82;;;6.90;99.90;;;;;;5006443;28;20033;-67
2024/02/02 06:53:57;;;;;;;24.10;6.80;;;6.90;99.90;;;;;;5018061;28;20053;-66
2024/02/02 06:56:51;;;;;;;26.60;7.75;;;6.90;99.90;;;;;;5017481;28;20068;-66
2024/02/02 06:59:18;;;;;;;16.67;7.25;;;6.80;99.90;;;;;;5018438;28;20076;-66
2024/02/02 07:01:44;;;;;;;32.85;8.07;;;6.80;99.90;;;;;;5020245;28;20094;-67
2024/02/02 07:04:14;;;;;;;22.40;8.32;;;6.90;99.90;;;;;;5020759;28;20132;-66
2024/02/02 07:06:43;;;;;;;23.55;8.38;;;6.80;99.90;;;;;;5018675;28;20400;-66
2024/02/02 07:09:20;;;;;;;34.53;9.25;;;6.80;99.90;;;;;;5020226;28;20040;-67
2024/02/02 07:12:04;;;;;;;32.97;9.25;;;6.90;99.90;;;;;;5023422;28;20029;-67
2024/02/02 07:14:49;;;;;;;36.95;9.20;;;6.80;99.90;;;;;;5002048;28;20065;-67
2024/02/02 07:17:21;;;;;;;34.10;10.48;;;6.80;99.90;;;;;;5015307;28;22824;-67
2024/02/02 07:19:49;;;;;;;23.77;9.68;;;6.90;99.90;;;;;;5017550;28;20559;-67
2024/02/02 07:22:33;;;;;;;32.33;10.57;;;6.80;99.90;;;;;;5018059;28;20044;-67
2024/02/02 07:25:03;;;;;;;31.42;11.40;;;6.90;99.90;;;;;;5014634;28;20033;-67
2024/02/02 07:27:37;;;;;;;52.88;13.50;;;6.90;99.90;;;;;;5010001;28;20385;-67
2024/02/02 07:30:22;;;;;;;37.00;12.70;;;6.90;99.90;;;;;;5014980;28;20491;-67
2024/02/02 07:32:49;;;;;;;35.70;11.57;;;6.90;99.90;;;;;;5020990;28;20030;-67
2024/02/02 07:35:31;;;;;;;33.70;12.45;;;6.90;99.90;;;;;;5020211;28;20042;-67
2024/02/02 07:38:02;;;;;;;36.13;12.75;;;6.90;99.90;;;;;;5017978;28;20409;-66
2024/02/02 07:40:42;;;;;;;33.45;11.85;;;6.90;99.90;;;;;;5018021;28;21179;-67
2024/02/02 07:43:10;;;;;;;43.67;12.25;;;6.90;99.90;;;;;;5018565;28;20033;-67
2024/02/02 07:45:35;;;;;;;36.38;11.90;;;6.90;99.90;;;;;;5021648;28;20041;-67
2024/02/02 07:48:01;;;;;;;33.50;12.23;;;6.90;99.90;;;;;;5015710;28;20038;-67
2024/02/02 07:50:27;;;;;;;39.75;12.00;;;6.90;99.90;;;;;;5020033;28;20025;-68
2024/02/02 07:52:55;;;;;;;34.10;12.23;;;6.90;99.90;;;;;;5021267;28;20060;-68
2024/02/02 07:55:25;;;;;;;38.92;11.68;;;6.90;99.90;;;;;;5024989;28;20045;-68
2024/02/02 07:57:51;;;;;;;47.20;11.25;;;6.90;99.90;;;;;;5026909;28;20025;-68
2024/02/02 08:00:19;;;;;;;42.95;10.93;;;7.00;99.90;;;;;;5022256;28;20532;-68
2024/02/02 08:02:45;;;;;;;30.73;10.55;;;7.00;99.90;;;;;;5003389;28;20034;-68
2024/02/02 08:05:10;;;;;;;29.17;9.85;;;7.00;99.90;;;;;;5018350;28;20030;-67
2024/02/02 08:07:41;;;;;;;42.17;11.25;;;7.00;99.90;;;;;;5022725;28;20413;-68
2024/02/02 08:10:06;;;;;;;30.90;9.30;;;7.00;99.90;;;;;;5021854;28;20473;-68
2024/02/02 08:12:37;;;;;;;28.90;8.98;;;7.10;99.90;;;;;;5027982;28;20048;-68
2024/02/02 08:15:03;;;;;;;40.15;9.38;;;7.10;99.90;;;;;;5024395;28;20088;-68
2024/02/02 08:17:29;;;;;;;34.92;9.13;;;7.10;99.90;;;;;;5023217;28;20045;-68
2024/02/02 08:19:57;;;;;;;28.33;8.02;;;7.20;99.90;;;;;;5024393;28;20488;-68
2024/02/02 08:22:25;;;;;;;;;;;7.20;99.90;;;;;;5024197;28;20041;-68
2024/02/02 08:24:52;;;;;;;33.42;8.00;;;7.20;99.90;;;;;;5017732;28;19916;-68
2024/02/02 08:27:21;;;;;;;29.15;7.47;;;7.20;99.90;;;;;;5024888;28;20029;-68
2024/02/02 08:29:49;;;;;;;28.33;7.50;;;7.20;99.90;;;;;;5021807;28;20046;-68
2024/02/02 08:32:19;;;;;;;31.65;7.40;;;7.20;99.90;;;;;;5020728;28;20520;-68
2024/02/02 08:34:44;;;;;;;26.05;7.10;;;7.20;99.90;;;;;;5021734;28;20049;-68
2024/02/02 08:37:15;;;;;;;28.70;5.65;;;7.20;99.90;;;;;;5024116;28;20041;-68
2024/02/02 08:39:44;;;;;;;28.48;6.25;;;7.30;99.90;;;;;;5023942;28;20032;-68
2024/02/02 08:42:23;;;;;;;37.28;7.75;;;7.30;99.90;;;;;;5023775;28;20049;-68
2024/02/02 08:44:53;;;;;;;22.65;7.05;;;7.30;99.90;;;;;;5019935;28;20040;-68
2024/02/02 08:47:24;;;;;;;32.58;6.47;;;7.30;99.90;;;;;;5008368;28;20041;-68
2024/02/02 08:49:56;;;;;;;31.23;6.25;;;7.40;99.90;;;;;;5006553;28;20048;-68
2024/02/02 08:52:43;;;;;;;18.95;6.28;;;7.30;99.90;;;;;;5024913;28;20060;-68
2024/02/02 08:55:45;;;;;;;29.67;6.82;;;7.40;99.90;;;;;;5021793;28;20618;-66
2024/02/02 08:58:18;;;;;;;32.15;7.03;;;7.40;99.90;;;;;;5019986;28;20033;-68
2024/02/02 09:00:44;;;;;;;27.00;6.45;;;7.50;99.90;;;;;;5022173;28;20056;-68
2024/02/02 09:03:46;;;;;;;22.45;6.53;;;7.50;99.90;;;;;;5022243;28;20160;-68
2024/02/02 09:06:37;;;;;;;26.63;6.97;;;7.60;99.90;;;;;;5018337;28;20512;-68
2024/02/02 09:09:11;;;;;;;19.60;6.43;;;7.60;99.90;;;;;;5022895;28;20030;-68
2024/02/02 09:11:39;;;;;;;24.02;7.13;;;7.80;99.90;;;;;;5035843;23;20084;-68
2024/02/02 09:14:09;;;;;;;;;;;7.70;99.90;;;;;;4986073;28;20035;-68
2024/02/02 09:16:46;;;;;;;23.27;6.32;;;7.70;99.90;;;;;;4980908;28;19929;-68
2024/02/02 09:19:26;;;;;;;21.98;7.68;;;7.80;99.90;;;;;;4984451;28;20046;-68
2024/02/02 09:21:54;;;;;;;26.42;7.72;;;7.80;99.90;;;;;;4982907;28;20076;-68
2024/02/02 09:24:53;;;;;;;24.98;7.80;;;7.90;99.90;;;;;;4983799;28;20049;-68
2024/02/02 09:27:35;;;;;;;24.65;7.00;;;7.90;99.90;;;;;;4985911;28;20738;-68
2024/02/02 09:30:20;;;;;;;27.05;7.65;;;7.90;99.90;;;;;;4987583;28;20126;-68
2024/02/02 09:32:45;;;;;;;23.33;7.18;;;7.80;99.90;;;;;;4987254;28;20049;-68
2024/02/02 09:35:46;;;;;;;19.77;7.38;;;8.10;99.90;;;;;;4983407;28;20510;-68
2024/02/02 09:38:14;;;;;;;24.75;7.45;;;7.90;99.90;;;;;;4931840;28;20040;-68
2024/02/02 09:41:04;;;;;;;24.33;7.65;;;8.00;99.90;;;;;;4983518;28;20026;-68
2024/02/02 09:44:04;;;;;;;22.35;7.70;;;8.00;99.90;;;;;;4985994;28;20399;-68
2024/02/02 09:46:35;;;;;;;34.70;8.00;;;8.00;99.90;;;;;;4986030;28;20027;-68
2024/02/02 09:49:42;;;;;;;28.83;7.88;;;8.00;99.90;;;;;;4985397;28;20038;-68
2024/02/02 09:52:23;;;;;;;20.00;7.63;;;8.00;99.90;;;;;;4986599;28;20042;-68
2024/02/02 09:54:53;;;;;;;24.15;7.35;;;8.00;99.90;;;;;;4982840;28;20057;-67
2024/02/02 09:57:35;;;;;;;35.55;8.50;;;8.00;99.90;;;;;;4985265;28;20022;-68
2024/02/02 10:00:16;;;;;;;27.83;7.25;;;8.10;99.90;;;;;;4983421;28;20038;-68
2024/02/02 10:02:51;;;;;;;25.30;6.90;;;8.10;99.90;;;;;;4981754;28;20030;-68
2024/02/02 10:05:48;;;;;;;24.90;6.55;;;8.20;99.90;;;;;;4979697;28;20206;-68
2024/02/02 10:08:26;;;;;;;31.95;8.07;;;8.20;99.90;;;;;;4980472;28;20618;-69
2024/02/02 10:11:22;;;;;;;18.90;7.28;;;8.20;99.90;;;;;;4982703;28;20046;-68
2024/02/02 10:14:21;;;;;;;28.30;8.10;;;8.20;99.90;;;;;;4981682;28;20126;-68
2024/02/02 10:16:53;;;;;;;22.52;7.13;;;8.20;99.90;;;;;;4980946;28;20054;-68
2024/02/02 10:19:20;;;;;;;25.63;7.43;;;8.20;99.90;;;;;;4985373;28;20049;-68
2024/02/02 10:22:17;;;;;;;26.67;7.38;;;8.20;99.90;;;;;;4985789;28;20080;-68
2024/02/02 10:25:06;;;;;;;33.42;7.20;;;8.30;99.90;;;;;;4982628;28;20034;-68
2024/02/02 10:28:21;;;;;;;23.90;7.30;;;8.30;99.90;;;;;;4981950;28;20120;-68
2024/02/02 10:31:31;;;;;;;31.95;7.72;;;8.30;99.90;;;;;;4959615;28;20070;-68
2024/02/02 10:34:33;;;;;;;27.15;7.43;;;8.30;99.90;;;;;;4981687;28;20034;-68
2024/02/02 10:37:24;;;;;;;22.20;8.07;;;8.20;99.90;;;;;;4981606;28;20045;-68
2024/02/02 10:40:15;;;;;;;27.58;8.50;;;8.20;99.90;;;;;;4972212;28;20046;-68
2024/02/02 10:42:47;;;;;;;29.67;7.90;;;8.20;99.90;;;;;;4980336;28;20042;-68
2024/02/02 10:45:12;;;;;;;25.75;7.38;;;8.20;99.90;;;;;;4980509;28;20034;-67
2024/02/02 10:48:00;;;;;;;28.75;8.27;;;8.20;99.90;;;;;;4979416;28;20458;-68
2024/02/02 10:50:44;;;;;;;32.60;7.45;;;8.20;99.90;;;;;;4980389;28;20109;-68
2024/02/02 10:53:28;;;;;;;20.13;7.82;;;8.10;99.90;;;;;;4980872;28;20093;-68
2024/02/02 10:55:59;;;;;;;24.83;7.95;;;8.20;99.90;;;;;;4984901;28;20410;-68
2024/02/02 10:58:46;;;;;;;28.30;7.45;;;8.10;99.90;;;;;;4979449;28;20069;-67
2024/02/02 11:01:24;;;;;;;31.52;8.23;;;8.10;99.90;;;;;;4982176;28;20667;-68
2024/02/02 11:04:07;;;;;;;26.52;8.77;;;8.10;99.90;;;;;;4983929;28;20046;-68
2024/02/02 11:06:39;;;;;;;24.88;9.60;;;8.10;99.90;;;;;;4982069;28;20026;-66
2024/02/02 11:09:19;;;;;;;34.08;9.68;;;8.20;99.90;;;;;;4978151;28;20034;-67
2024/02/02 11:11:54;;;;;;;30.70;8.00;;;8.20;99.90;;;;;;4983515;28;20035;-66
2024/02/02 16:28:59;;;;;;;31.17;14.88;;;8.40;99.90;;;;;;5067310;27;20911;-67
2024/02/02 16:31:27;;;;;;;33.88;16.05;;;8.30;99.90;;;;;;5028509;28;20020;-69
2024/02/02 16:33:53;;;;;;;41.83;17.33;;;8.30;99.90;;;;;;5061228;28;20031;-69
2024/02/02 16:36:18;;;;;;;43.83;17.33;;;8.30;99.90;;;;;;5062158;28;20013;-69
2024/02/02 16:38:44;;;;;;;43.60;16.42;;;8.30;99.90;;;;;;5055895;28;20040;-69
2024/02/02 16:41:13;;;;;;;40.03;16.30;;;8.30;99.90;;;;;;5056231;28;20121;-69
2024/02/02 16:43:39;;;;;;;40.10;15.98;;;8.40;99.90;;;;;;5057445;28;20510;-69
2024/02/02 16:46:04;;;;;;;40.08;17.23;;;8.40;99.90;;;;;;5057785;28;20107;-69
2024/02/02 16:48:30;;;;;;;39.13;17.00;;;8.40;99.90;;;;;;5056433;28;20190;-69
2024/02/02 16:50:56;;;;;;;33.58;16.10;;;8.40;99.90;;;;;;5055349;28;20045;-69
2024/02/02 16:53:24;;;;;;;38.10;15.73;;;8.40;99.90;;;;;;5059211;28;20029;-69
2024/02/02 16:55:52;;;;;;;39.17;16.08;;;8.40;99.90;;;;;;5055853;28;20483;-68
2024/02/02 16:58:20;;;;;;;40.25;16.52;;;8.40;99.90;;;;;;5060619;28;20061;-75
2024/02/02 17:00:47;;;;;;;37.33;16.75;;;8.60;99.90;;;;;;5058417;28;20029;-71
2024/02/02 17:03:13;;;;;;;29.30;15.07;;;8.40;99.90;;;;;;5057670;28;20028;-70
2024/02/02 17:05:39;;;;;;;32.67;16.33;;;8.50;99.90;;;;;;5051410;28;20025;-70
2024/02/02 17:08:05;;;;;;;41.05;15.80;;;8.40;99.90;;;;;;5057866;28;20040;-70
2024/02/02 17:10:30;;;;;;;31.20;15.40;;;8.50;99.90;;;;;;5058121;28;20512;-70
2024/02/02 17:12:56;;;;;;;32.63;14.93;;;8.40;99.90;;;;;;5057431;28;20604;-70
2024/02/02 17:15:29;;;;;;;26.90;14.55;;;8.50;99.90;;;;;;5060583;28;20037;-70
2024/02/02 17:17:54;;;;;;;34.10;15.10;;;8.50;99.90;;;;;;5055773;28;20079;-70
2024/02/02 17:20:24;;;;;;;28.30;14.43;;;8.50;99.90;;;;;;5059526;28;20131;-70
2024/02/02 17:22:50;;;;;;;28.95;13.82;;;8.60;99.90;;;;;;5050169;28;20481;-70
2024/02/02 17:25:15;;;;;;;27.73;14.15;;;8.50;99.90;;;;;;5058765;28;20053;-70
2024/02/02 17:27:41;;;;;;;30.08;13.85;;;8.60;99.90;;;;;;5058217;28;20043;-70
2024/02/02 17:30:07;;;;;;;27.20;13.38;;;8.50;99.90;;;;;;5053469;28;20039;-70
2024/02/02 17:32:38;;;;;;;27.38;13.43;;;8.60;99.90;;;;;;5053840;28;20043;-70
2024/02/02 17:35:06;;;;;;;26.05;13.93;;;8.50;99.90;;;;;;5053357;28;20588;-70
2024/02/02 17:37:34;;;;;;;30.38;14.52;;;8.50;99.90;;;;;;5055108;28;20060;-70
2024/02/02 17:40:02;;;;;;;32.13;14.95;;;8.60;99.90;;;;;;5042602;28;20538;-71
2024/02/02 17:42:27;;;;;;;33.47;14.55;;;8.60;99.90;;;;;;5044364;28;20104;-70
2024/02/02 17:44:53;;;;;;;30.00;15.30;;;8.60;99.90;;;;;;5042487;28;20607;-72
2024/02/02 17:47:19;;;;;;;29.80;15.13;;;8.60;99.90;;;;;;5048109;28;20036;-73
2024/02/02 17:49:44;;;;;;;28.73;14.73;;;8.60;99.90;;;;;;5049064;28;20505;-72
2024/02/02 17:52:10;;;;;;;27.52;14.15;;;8.60;99.90;;;;;;5044420;28;20068;-71
2024/02/02 17:54:35;;;;;;;25.58;13.63;;;8.60;99.90;;;;;;5043272;28;20108;-71
2024/02/02 17:57:01;;;;;;;24.58;13.18;;;8.70;99.90;;;;;;5036753;28;20079;-71
2024/02/02 17:59:27;;;;;;;24.30;14.85;;;8.60;99.90;;;;;;5044408;28;20086;-71
2024/02/02 18:01:52;;;;;;;29.30;14.45;;;8.60;99.90;;;;;;5038848;28;20032;-71
2024/02/02 18:04:18;;;;;;;28.60;14.68;;;8.60;99.90;;;;;;5043762;28;20082;-70
2024/02/02 18:06:43;;;;;;;31.65;14.57;;;8.60;99.90;;;;;;5041790;28;20029;-72
2024/02/02 18:09:12;;;;;;;25.17;13.10;;;8.70;99.90;;;;;;5042935;28;20094;-73
2024/02/02 18:11:42;;;;;;;26.77;13.38;;;8.60;99.90;;;;;;5042845;28;20029;-71
2024/02/02 18:14:10;;;;;;;25.83;13.27;;;8.70;99.90;;;;;;5040504;28;20032;-70
2024/02/02 18:16:38;;;;;;;26.75;12.60;;;8.70;99.90;;;;;;5035701;28;20034;-73
2024/02/02 18:19:03;;;;;;;;;;;8.70;99.90;;;;;;5041165;28;20090;-70